createdAt,value
2018-07-09T00:00:12.340Z,101201.45
2018-07-09T00:02:40.839Z,101197.47
2018-07-09T00:05:09.926Z,101201.86
2018-07-09T00:07:39.032Z,101202.28
2018-07-09T00:10:07.837Z,101199.21
2018-07-09T00:12:36.395Z,101194.80
2018-07-09T00:15:04.965Z,101189.47
2018-07-09T00:17:33.746Z,101190.77
2018-07-09T00:20:02.583Z,101185.02
2018-07-09T00:22:31.033Z,101188.09
2018-07-09T00:24:59.793Z,101186.77
2018-07-09T00:27:28.469Z,101186.31
2018-07-09T00:29:56.953Z,101183.63
2018-07-09T00:32:26.027Z,101187.16
2018-07-09T00:34:54.977Z,101182.76
2018-07-09T00:37:23.437Z,101184.09
2018-07-09T00:39:51.966Z,101182.72
2018-07-09T00:42:20.480Z,101186.23
2018-07-09T00:44:48.901Z,101183.14
2018-07-09T00:47:17.673Z,101188.38
2018-07-09T00:49:46.473Z,101190.13
2018-07-09T00:52:15.051Z,101192.30
2018-07-09T00:54:43.867Z,101190.02
2018-07-09T00:57:12.860Z,101189.05
2018-07-09T00:59:41.822Z,101194.25
2018-07-09T01:02:10.392Z,101182.27
2018-07-09T01:04:39.029Z,101184.00
2018-07-09T01:07:07.773Z,101181.31
2018-07-09T01:09:36.241Z,101185.28
2018-07-09T01:12:11.507Z,101183.05
2018-07-09T01:14:40.735Z,101183.48
2018-07-09T01:17:10.120Z,101182.59
2018-07-09T01:19:39.684Z,101183.92
2018-07-09T01:22:08.200Z,101179.00
2018-07-09T01:24:36.961Z,101181.15
2018-07-09T01:27:12.393Z,101183.72
2018-07-09T01:29:40.973Z,101184.53
2018-07-09T01:32:09.453Z,101186.33
2018-07-09T01:34:38.030Z,101187.68
2018-07-09T01:37:07.021Z,101183.25
2018-07-09T01:39:35.466Z,101183.25
2018-07-09T01:42:04.033Z,101181.00
2018-07-09T01:44:32.747Z,101183.59
2018-07-09T01:47:01.184Z,101182.61
2018-07-09T01:49:30.008Z,101176.37
2018-07-09T01:51:58.817Z,101182.53
2018-07-09T01:54:27.505Z,101177.66
2018-07-09T01:56:55.978Z,101179.83
2018-07-09T01:59:24.835Z,101180.26
2018-07-09T02:01:53.304Z,101179.02
2018-07-09T02:04:22.113Z,101173.32
2018-07-09T02:06:50.929Z,101175.98
2018-07-09T02:09:19.675Z,101168.03
2018-07-09T02:11:48.478Z,101166.26
2018-07-09T02:14:17.280Z,101162.23
2018-07-09T02:16:45.978Z,101163.52
2018-07-09T02:19:14.937Z,101159.95
2018-07-09T02:21:43.366Z,101159.42
2018-07-09T02:24:12.024Z,101160.70
2018-07-09T02:26:40.945Z,101160.69
2018-07-09T02:29:10.131Z,101160.23
2018-07-09T02:31:39.920Z,101153.99
2018-07-09T02:34:08.801Z,101159.67
2018-07-09T02:36:37.234Z,101155.68
2018-07-09T02:39:07.625Z,101167.11
2018-07-09T02:41:36.379Z,101167.11
2018-07-09T02:44:04.894Z,101164.06
2018-07-09T02:46:33.560Z,101168.48
2018-07-09T02:49:02.589Z,101160.97
2018-07-09T02:51:31.039Z,101165.37
2018-07-09T02:53:59.626Z,101162.31
2018-07-09T02:56:28.501Z,101163.67
2018-07-09T02:58:56.956Z,101166.86
2018-07-09T03:01:25.399Z,101162.95
2018-07-09T03:03:54.049Z,101157.69
2018-07-09T03:06:22.493Z,101157.69
2018-07-09T03:08:51.157Z,101155.55
2018-07-09T03:11:20.329Z,101155.61
2018-07-09T03:13:48.764Z,101156.58
2018-07-09T03:16:17.225Z,101159.23
2018-07-09T03:18:46.057Z,101150.94
2018-07-09T03:21:14.849Z,101158.48
2018-07-09T03:23:43.750Z,101159.00
2018-07-09T03:26:12.751Z,101168.33
2018-07-09T03:28:41.704Z,101165.36
2018-07-09T03:31:10.346Z,101170.30
2018-07-09T03:33:39.085Z,101160.25
2018-07-09T03:36:08.307Z,101166.05
2018-07-09T03:38:37.209Z,101161.69
2018-07-09T03:41:05.713Z,101154.72
2018-07-09T03:43:34.153Z,101148.17
2018-07-09T03:46:02.965Z,101151.33
2018-07-09T03:48:31.594Z,101149.20
2018-07-09T03:51:00.058Z,101152.32
2018-07-09T03:53:28.981Z,101157.20
2018-07-09T03:55:58.142Z,101147.49
2018-07-09T03:58:26.582Z,101158.99
2018-07-09T04:00:55.361Z,101154.60
2018-07-09T04:03:24.580Z,101160.34
2018-07-09T04:05:53.021Z,101166.12
2018-07-09T04:08:21.781Z,101168.80
2018-07-09T04:10:50.706Z,101164.40
2018-07-09T04:13:19.634Z,101165.28
2018-07-09T04:15:48.167Z,101170.14
2018-07-09T04:18:16.957Z,101178.97
2018-07-09T04:20:45.763Z,101175.02
2018-07-09T04:23:14.198Z,101169.33
2018-07-09T04:25:43.052Z,101166.26
2018-07-09T04:28:11.802Z,101170.24
2018-07-09T04:30:40.726Z,101161.88
2018-07-09T04:33:09.859Z,101157.94
2018-07-09T04:35:38.489Z,101161.06
2018-07-09T04:38:07.481Z,101162.87
2018-07-09T04:40:36.458Z,101166.88
2018-07-09T04:43:04.953Z,101164.72
2018-07-09T04:45:33.865Z,101168.75
2018-07-09T04:48:03.034Z,101170.56
2018-07-09T04:50:31.493Z,101173.24
2018-07-09T04:52:59.938Z,101175.48
2018-07-09T04:55:28.876Z,101166.69
2018-07-09T04:57:57.460Z,101172.05
2018-07-09T05:00:26.089Z,101001.50
2018-07-09T05:02:54.954Z,101167.71
2018-07-09T05:05:23.433Z,101173.50
2018-07-09T05:07:51.870Z,101168.70
2018-07-09T05:10:21.201Z,101165.19
2018-07-09T05:12:49.687Z,101162.98
2018-07-09T05:15:18.152Z,101168.32
2018-07-09T05:17:46.973Z,101169.23
2018-07-09T05:20:15.765Z,101168.81
2018-07-09T05:22:44.349Z,101171.94
2018-07-09T05:25:13.013Z,101167.94
2018-07-09T05:27:41.785Z,101173.70
2018-07-09T05:30:11.146Z,101178.57
2018-07-09T05:32:40.008Z,101183.89
2018-07-09T05:35:09.523Z,101182.58
2018-07-09T05:37:38.088Z,101181.26
2018-07-09T05:40:07.081Z,101178.17
2018-07-09T05:42:42.485Z,101175.55
2018-07-09T05:45:11.414Z,101174.22
2018-07-09T05:47:41.308Z,101175.55
2018-07-09T05:50:10.425Z,101174.64
2018-07-09T05:52:39.310Z,101177.28
2018-07-09T05:55:07.829Z,101174.58
2018-07-09T05:57:36.481Z,101172.34
2018-07-09T06:00:05.680Z,101175.36
2018-07-09T06:02:34.161Z,101172.63
2018-07-09T06:05:02.599Z,101171.66
2018-07-09T06:07:31.700Z,101165.37
2018-07-09T06:10:00.239Z,101167.97
2018-07-09T06:12:28.974Z,101171.44
2018-07-09T06:14:58.085Z,101173.55
2018-07-09T06:17:26.595Z,101054.13
2018-07-09T06:19:55.109Z,101171.69
2018-07-09T06:22:24.157Z,101176.00
2018-07-09T06:24:52.959Z,101180.31
2018-07-09T06:27:21.437Z,101178.84
2018-07-09T06:29:50.213Z,101176.09
2018-07-09T06:32:19.001Z,101180.09
2018-07-09T06:34:47.813Z,101183.63
2018-07-09T06:37:16.787Z,101176.93
2018-07-09T06:39:45.701Z,101180.02
2018-07-09T06:42:14.413Z,101182.61
2018-07-09T06:44:43.899Z,101183.86
2018-07-09T06:47:12.685Z,101183.36
2018-07-09T06:49:41.161Z,101189.05
2018-07-09T06:52:09.901Z,101182.75
2018-07-09T06:54:38.808Z,101186.72
2018-07-09T06:57:07.807Z,101196.45
2018-07-09T06:59:36.284Z,101195.08
2018-07-09T07:02:05.073Z,101197.68
2018-07-09T07:04:33.508Z,101197.50
2018-07-09T07:07:02.357Z,101200.00
2018-07-09T07:09:31.607Z,101198.06
2018-07-09T07:12:00.413Z,101200.18
2018-07-09T07:14:29.471Z,101199.19
2018-07-09T07:16:57.993Z,101200.92
2018-07-09T07:19:27.705Z,101198.61
2018-07-09T07:21:56.921Z,101196.23
2018-07-09T07:24:25.445Z,101198.86
2018-07-09T07:26:54.077Z,101203.23
2018-07-09T07:29:22.726Z,101206.25
2018-07-09T07:31:51.201Z,101207.06
2018-07-09T07:34:19.839Z,101200.33
2018-07-09T07:36:48.709Z,101210.12
2018-07-09T07:39:17.699Z,101205.20
2018-07-09T07:41:46.480Z,101211.45
2018-07-09T07:44:15.781Z,101206.09
2018-07-09T07:46:44.421Z,101207.22
2018-07-09T07:49:12.914Z,101209.58
2018-07-09T07:51:42.026Z,101207.19
2018-07-09T07:54:11.333Z,101209.35
2018-07-09T07:56:40.078Z,101204.77
2018-07-09T07:59:09.097Z,101209.08
2018-07-09T08:01:37.816Z,101205.97
2018-07-09T08:04:06.285Z,101208.91
2018-07-09T08:06:35.057Z,101212.31
2018-07-09T08:09:04.074Z,101211.55
2018-07-09T08:11:47.687Z,101217.14
2018-07-09T08:14:02.373Z,101219.08
2018-07-09T08:16:31.438Z,101214.58
2018-07-09T08:18:59.919Z,101212.89
2018-07-09T08:21:28.749Z,101217.84
2018-07-09T08:23:57.509Z,101229.64
2018-07-09T08:26:25.981Z,101233.50
2018-07-09T08:28:55.687Z,101237.22
2018-07-09T08:31:24.596Z,101238.75
2018-07-09T08:33:53.501Z,101243.56
2018-07-09T08:36:22.370Z,101229.76
2018-07-09T08:38:50.859Z,101239.75
2018-07-09T08:41:20.335Z,101233.13
2018-07-09T08:43:49.347Z,101235.00
2018-07-09T08:46:17.818Z,101222.80
2018-07-09T08:48:46.837Z,101218.08
2018-07-09T08:51:15.816Z,101231.72
2018-07-09T08:53:44.272Z,101231.58
2018-07-09T08:56:12.855Z,101233.62
2018-07-09T08:58:41.862Z,101233.13
2018-07-09T09:01:10.307Z,101237.05
2018-07-09T09:03:39.720Z,101240.92
2018-07-09T09:06:08.590Z,101238.66
2018-07-09T09:08:37.104Z,101229.02
2018-07-09T09:11:05.573Z,101237.20
2018-07-09T09:13:34.906Z,101233.87
2018-07-09T09:16:03.694Z,101238.34
2018-07-09T09:18:32.542Z,101232.45
2018-07-09T09:21:01.450Z,101235.80
2018-07-09T09:23:30.256Z,101237.95
2018-07-09T09:25:58.934Z,101238.45
2018-07-09T09:28:27.825Z,101243.34
2018-07-09T09:30:56.314Z,101248.22
2018-07-09T09:33:24.914Z,101238.24
2018-07-09T09:35:53.993Z,101239.37
2018-07-09T09:38:22.995Z,101238.25
2018-07-09T09:40:51.459Z,101247.22
2018-07-09T09:43:20.542Z,101238.08
2018-07-09T09:45:49.841Z,101242.59
2018-07-09T09:48:18.293Z,101241.95
2018-07-09T09:50:47.218Z,101243.06
2018-07-09T09:53:15.784Z,101243.00
2018-07-09T09:55:44.356Z,101247.04
2018-07-09T09:58:13.302Z,101243.51
2018-07-09T10:00:47.119Z,101247.58
2018-07-09T10:03:15.761Z,101243.43
2018-07-09T10:05:44.333Z,101243.64
2018-07-09T10:08:12.803Z,101246.37
2018-07-09T10:10:42.175Z,101242.23
2018-07-09T10:13:10.633Z,101236.87
2018-07-09T10:15:39.169Z,101243.53
2018-07-09T10:18:08.305Z,101239.98
2018-07-09T10:20:36.777Z,101242.51
2018-07-09T10:23:05.372Z,101241.25
2018-07-09T10:25:33.924Z,101132.40
2018-07-09T10:28:02.380Z,101238.26
2018-07-09T10:30:30.829Z,101240.16
2018-07-09T10:32:59.310Z,101234.84
2018-07-09T10:35:27.772Z,101236.00
2018-07-09T10:37:56.215Z,101235.53
2018-07-09T10:40:24.741Z,101238.96
2018-07-09T10:42:53.402Z,101230.36
2018-07-09T10:45:21.933Z,101236.83
2018-07-09T10:47:50.690Z,101241.19
2018-07-09T10:50:19.461Z,101250.05
2018-07-09T10:52:47.919Z,101241.27
2018-07-09T10:55:16.630Z,101251.88
2018-07-09T10:57:45.517Z,101258.20
2018-07-09T11:00:13.983Z,101254.88
2018-07-09T11:02:42.497Z,101264.30
2018-07-09T11:05:11.351Z,101265.13
2018-07-09T11:07:40.580Z,101259.17
2018-07-09T11:10:09.074Z,101261.92
2018-07-09T11:12:37.497Z,101258.47
2018-07-09T11:15:06.006Z,101270.59
2018-07-09T11:17:35.113Z,101270.41
2018-07-09T11:20:04.245Z,101271.29
2018-07-09T11:22:32.709Z,101274.27
2018-07-09T11:25:01.191Z,101269.62
2018-07-09T11:27:29.760Z,101270.52
2018-07-09T11:29:58.619Z,101265.63
2018-07-09T11:32:27.417Z,101270.84
2018-07-09T11:34:56.135Z,101275.90
2018-07-09T11:37:24.799Z,101275.23
2018-07-09T11:39:53.312Z,101275.93
2018-07-09T11:42:22.355Z,101283.53
2018-07-09T11:44:50.823Z,101272.78
2018-07-09T11:47:20.273Z,101282.55
2018-07-09T11:49:48.737Z,101277.16
2018-07-09T11:52:17.203Z,101270.08
2018-07-09T11:54:46.520Z,101275.93
2018-07-09T11:57:15.221Z,101272.06
2018-07-09T11:59:43.693Z,101277.69
2018-07-09T12:02:12.834Z,101276.10
2018-07-09T12:04:41.608Z,101279.72
2018-07-09T12:07:10.366Z,101282.62
2018-07-09T12:09:39.138Z,101280.03
2018-07-09T12:12:08.505Z,101282.75
2018-07-09T12:14:36.954Z,101284.41
2018-07-09T12:17:06.414Z,101278.83
2018-07-09T12:19:35.225Z,101280.59
2018-07-09T12:22:03.885Z,101276.30
2018-07-09T12:24:32.776Z,101289.69
2018-07-09T12:27:01.593Z,101284.83
2018-07-09T12:29:30.069Z,101284.09
2018-07-09T12:31:58.563Z,101286.97
2018-07-09T12:34:27.113Z,101284.69
2018-07-09T12:36:56.054Z,101282.66
2018-07-09T12:39:24.561Z,101279.02
2018-07-09T12:41:53.041Z,101281.25
2018-07-09T12:44:22.053Z,101284.25
2018-07-09T12:46:50.790Z,101291.02
2018-07-09T12:49:19.930Z,101287.30
2018-07-09T12:51:48.469Z,101290.06
2018-07-09T12:54:17.311Z,101292.13
2018-07-09T12:56:45.803Z,101288.47
2018-07-09T12:59:14.682Z,101295.48
2018-07-09T13:01:43.329Z,101296.88
2018-07-09T13:04:11.821Z,101285.16
2018-07-09T13:06:40.594Z,101283.49
2018-07-09T13:09:09.594Z,101291.75
2018-07-09T13:11:38.057Z,101298.30
2018-07-09T13:14:06.933Z,101285.66
2018-07-09T13:16:35.851Z,101288.97
2018-07-09T13:19:04.346Z,101289.45
2018-07-09T13:21:33.345Z,101299.66
2018-07-09T13:24:02.467Z,101292.45
2018-07-09T13:26:30.913Z,101297.64
2018-07-09T13:29:00.066Z,101296.31
2018-07-09T13:31:29.242Z,101308.92
2018-07-09T13:33:58.021Z,101308.50
2018-07-09T13:36:27.078Z,101308.38
2018-07-09T13:38:56.287Z,101312.25
2018-07-09T13:41:24.748Z,101310.39
2018-07-09T13:43:53.250Z,101307.23
2018-07-09T13:46:22.490Z,101310.94
2018-07-09T13:48:51.313Z,101309.41
2018-07-09T13:51:20.387Z,101306.36
2018-07-09T13:53:49.157Z,101309.70
2018-07-09T13:56:17.984Z,101312.48
2018-07-09T13:58:46.455Z,101315.08
2018-07-09T14:01:15.329Z,101312.95
2018-07-09T14:03:44.012Z,101315.50
2018-07-09T14:06:12.473Z,101313.38
2018-07-09T14:08:41.648Z,101307.95
2018-07-09T14:11:10.881Z,101304.98
2018-07-09T14:13:39.405Z,101307.56
2018-07-09T14:16:08.342Z,101307.91
2018-07-09T14:18:36.810Z,101304.20
2018-07-09T14:21:05.733Z,101209.91
2018-07-09T14:23:34.595Z,101309.12
2018-07-09T14:26:03.197Z,101309.88
2018-07-09T14:28:31.674Z,101306.88
2018-07-09T14:31:00.381Z,101309.42
2018-07-09T14:33:28.817Z,101311.80
2018-07-09T14:35:57.517Z,101310.25
2018-07-09T14:38:26.511Z,101312.59
2018-07-09T14:40:54.963Z,101316.71
2018-07-09T14:43:23.688Z,101315.66
2018-07-09T14:45:52.469Z,101315.31
2018-07-09T14:48:20.950Z,101316.19
2018-07-09T14:50:49.611Z,101324.81
2018-07-09T14:53:18.437Z,101320.49
2018-07-09T14:55:46.909Z,101324.13
2018-07-09T14:58:18.976Z,101327.15
2018-07-09T15:00:47.946Z,101327.45
2018-07-09T15:03:16.448Z,101333.45
2018-07-09T15:05:45.125Z,101328.22
2018-07-09T15:08:14.090Z,101326.62
2018-07-09T15:10:42.560Z,101323.73
2018-07-09T15:13:11.194Z,101326.53
2018-07-09T15:15:41.706Z,101328.95
2018-07-09T15:18:10.685Z,101329.52
2018-07-09T15:20:39.333Z,101328.38
2018-07-09T15:23:08.349Z,101328.99
2018-07-09T15:25:37.065Z,101326.83
2018-07-09T15:28:05.847Z,101328.20
2018-07-09T15:30:35.327Z,101327.40
2018-07-09T15:33:03.818Z,101332.88
2018-07-09T15:35:32.283Z,101333.34
2018-07-09T15:38:01.393Z,101333.62
2018-07-09T15:40:29.845Z,101339.83
2018-07-09T15:42:58.354Z,101339.13
2018-07-09T15:45:27.577Z,101342.64
2018-07-09T15:47:56.158Z,101336.66
2018-07-09T15:50:24.649Z,101346.13
2018-07-09T15:52:53.917Z,101344.58
2018-07-09T15:55:22.965Z,101341.08
2018-07-09T15:57:51.446Z,101347.98
2018-07-09T16:00:20.088Z,101344.61
2018-07-09T16:02:48.877Z,101347.41
2018-07-09T16:05:17.784Z,101343.22
2018-07-09T16:07:46.453Z,101344.30
2018-07-09T16:10:14.902Z,101339.75
2018-07-09T16:12:43.409Z,101350.50
2018-07-09T16:15:11.953Z,101346.48
2018-07-09T16:17:40.377Z,101343.27
2018-07-09T16:20:09.458Z,101350.41
2018-07-09T16:22:38.345Z,101348.36
2018-07-09T16:25:06.837Z,101349.33
2018-07-09T16:27:35.270Z,101348.95
2018-07-09T16:30:05.340Z,101354.63
2018-07-09T16:32:34.062Z,101357.26
2018-07-09T16:35:02.505Z,101359.37
2018-07-09T16:37:31.305Z,101362.28
2018-07-09T16:40:00.072Z,101357.84
2018-07-09T16:42:28.785Z,101360.58
2018-07-09T16:44:57.638Z,101360.70
2018-07-09T16:47:26.469Z,101355.47
2018-07-09T16:49:54.956Z,101358.58
2018-07-09T16:52:23.998Z,101361.00
2018-07-09T16:54:52.980Z,101361.77
2018-07-09T16:57:21.613Z,101364.34
2018-07-09T16:59:50.463Z,101368.33
2018-07-09T17:02:19.177Z,101367.09
2018-07-09T17:04:47.633Z,101365.73
2018-07-09T17:07:16.454Z,101370.48
2018-07-09T17:09:45.575Z,101374.41
2018-07-09T17:12:14.043Z,101383.20
2018-07-09T17:14:42.944Z,101382.44
2018-07-09T17:17:11.617Z,101388.76
2018-07-09T17:19:40.724Z,101387.78
2018-07-09T17:22:11.082Z,101389.96
2018-07-09T17:24:40.157Z,101392.16
2018-07-09T17:27:09.081Z,101396.96
2018-07-09T17:29:38.002Z,101393.08
2018-07-09T17:32:07.298Z,101393.09
2018-07-09T17:34:36.058Z,101398.89
2018-07-09T17:37:05.070Z,101400.17
2018-07-09T17:39:33.554Z,101402.07
2018-07-09T17:42:02.421Z,101404.16
2018-07-09T17:44:31.613Z,101404.97
2018-07-09T17:47:00.058Z,101409.73
2018-07-09T17:49:28.514Z,101416.52
2018-07-09T17:51:57.401Z,101415.27
2018-07-09T17:54:25.844Z,101418.35
2018-07-09T17:56:54.278Z,101423.14
2018-07-09T17:59:23.677Z,101431.41
2018-07-09T18:01:52.137Z,101425.52
2018-07-09T18:04:20.730Z,101427.70
2018-07-09T18:06:49.882Z,101437.86
2018-07-09T18:09:18.337Z,101431.87
2018-07-09T18:11:46.801Z,101438.83
2018-07-09T18:14:15.534Z,101440.33
2018-07-09T18:16:44.328Z,101443.13
2018-07-09T18:19:13.000Z,101449.44
2018-07-09T18:21:41.896Z,101449.55
2018-07-09T18:24:10.709Z,101454.63
2018-07-09T18:26:39.340Z,101458.33
2018-07-09T18:29:08.658Z,101460.22
2018-07-09T18:31:37.349Z,101222.63
2018-07-09T18:34:06.373Z,101467.97
2018-07-09T18:36:35.243Z,101470.88
2018-07-09T18:39:04.881Z,101471.09
2018-07-09T18:41:33.639Z,101490.42
2018-07-09T18:44:02.370Z,101492.33
2018-07-09T18:46:31.033Z,101489.77
2018-07-09T18:48:59.685Z,101489.84
2018-07-09T18:51:28.694Z,101497.11
2018-07-09T18:53:57.151Z,101505.70
2018-07-09T18:56:26.093Z,101510.75
2018-07-09T18:58:54.965Z,101513.16
2018-07-09T19:01:23.930Z,101518.20
2018-07-09T19:03:53.083Z,101520.53
2018-07-09T19:06:55.389Z,101517.06
2018-07-09T19:09:25.078Z,101521.58
2018-07-09T19:11:53.842Z,101530.98
2018-07-09T19:14:26.061Z,101533.71
2018-07-09T19:17:13.877Z,101539.14
2018-07-09T19:19:52.029Z,101539.72
2018-07-09T19:22:28.330Z,101542.90
2018-07-09T19:24:55.833Z,101543.83
2018-07-09T19:27:23.129Z,101544.35
2018-07-09T19:29:50.417Z,101546.18
2018-07-09T19:32:17.984Z,101551.13
2018-07-09T19:34:45.502Z,101552.95
2018-07-09T19:37:12.998Z,101553.89
2018-07-09T19:39:40.661Z,101556.16
2018-07-09T19:42:07.937Z,101555.28
2018-07-09T19:44:35.257Z,101561.99
2018-07-09T19:47:03.266Z,101566.92
2018-07-09T19:49:30.543Z,101571.44
2018-07-09T19:51:57.827Z,101568.80
2018-07-09T19:54:25.302Z,101574.61
2018-07-09T19:56:53.305Z,101575.53
2018-07-09T19:59:20.629Z,101571.55
2018-07-09T20:01:48.597Z,101576.47
2018-07-09T20:04:15.873Z,101575.16
2018-07-09T20:06:43.161Z,101572.98
2018-07-09T20:11:21.130Z,101571.21
2018-07-09T20:14:02.445Z,101579.70
2018-07-09T20:17:44.309Z,101582.86
2018-07-09T20:20:11.649Z,101583.30
2018-07-09T20:22:39.197Z,101588.65
2018-07-09T20:25:06.513Z,101587.33
2018-07-09T20:27:33.793Z,101590.89
2018-07-09T20:30:01.077Z,101590.91
2018-07-09T20:32:28.397Z,101594.47
2018-07-09T20:34:55.685Z,101595.81
2018-07-09T20:37:23.422Z,101597.16
2018-07-09T20:39:50.737Z,101598.53
2018-07-09T20:42:18.065Z,101601.20
2018-07-09T20:44:45.681Z,101599.44
2018-07-09T20:47:12.997Z,101606.99
2018-07-09T20:49:40.268Z,101614.98
2018-07-09T20:52:07.745Z,101611.00
2018-07-09T20:54:35.230Z,101607.01
2018-07-09T20:57:02.517Z,101608.79
2018-07-09T20:59:30.119Z,101607.91
2018-07-09T21:01:57.901Z,101609.68
2018-07-09T21:04:29.389Z,101608.34
2018-07-09T21:06:58.159Z,101617.64
2018-07-09T21:09:26.153Z,101621.62
2018-07-09T21:11:53.813Z,101622.95
2018-07-09T21:14:21.136Z,101616.30
2018-07-09T21:16:48.401Z,101627.83
2018-07-09T21:19:16.011Z,101629.16
2018-07-09T21:21:43.313Z,101632.71
2018-07-09T21:24:10.630Z,101634.48
2018-07-09T21:26:38.042Z,101635.36
2018-07-09T21:29:05.487Z,101640.23
2018-07-09T21:31:32.766Z,101643.77
2018-07-09T21:34:00.242Z,101642.86
2018-07-09T21:36:27.960Z,101652.59
2018-07-09T21:38:55.241Z,101642.38
2018-07-09T21:41:22.582Z,101659.23
2018-07-09T21:43:50.349Z,101646.34
2018-07-09T21:46:17.625Z,101654.32
2018-07-09T21:48:44.950Z,101649.88
2018-07-09T21:51:12.576Z,101653.42
2018-07-09T21:53:39.845Z,101650.30
2018-07-09T21:56:07.125Z,101659.11
2018-07-09T21:58:34.633Z,101656.87
2018-07-09T22:01:02.217Z,101659.98
2018-07-09T22:03:29.782Z,101657.30
2018-07-09T22:05:57.114Z,101656.83
2018-07-09T22:08:24.740Z,101659.90
2018-07-09T22:10:52.014Z,101660.33
2018-07-09T22:13:19.334Z,101657.68
2018-07-09T22:15:46.805Z,101656.79
2018-07-09T22:18:14.086Z,101657.67
2018-07-09T22:20:41.389Z,101653.22
2018-07-09T22:23:09.768Z,101651.42
2018-07-09T22:25:37.042Z,101653.17
2018-07-09T22:28:04.362Z,101654.94
2018-07-09T22:30:33.281Z,101659.80
2018-07-09T22:33:01.890Z,101656.67
2018-07-09T22:35:30.777Z,101659.73
2018-07-09T22:37:59.229Z,101661.04
2018-07-09T22:40:27.949Z,101663.69
2018-07-09T22:42:56.638Z,101666.77
2018-07-09T22:45:25.090Z,101657.86
2018-07-09T22:47:53.710Z,101668.50
2018-07-09T22:50:22.423Z,101661.38
2018-07-09T22:52:51.253Z,101663.17
2018-07-09T22:56:29.693Z,101661.38
2018-07-09T22:58:58.442Z,101670.70
2018-07-09T23:01:27.154Z,101669.41
2018-07-09T23:03:56.049Z,101664.13
2018-07-09T23:06:25.121Z,101669.47
2018-07-09T23:11:53.162Z,101671.69
2018-07-09T23:14:59.375Z,101668.98
2018-07-09T23:17:39.353Z,101672.47
2018-07-09T23:20:32.857Z,101676.39
2018-07-09T23:23:00.381Z,101679.94
2018-07-09T23:25:27.654Z,101679.52
2018-07-09T23:27:54.925Z,101685.77
2018-07-09T23:30:22.537Z,101679.58
2018-07-09T23:32:49.826Z,101683.56
2018-07-09T23:35:17.099Z,101681.34
2018-07-09T23:37:44.993Z,101680.03
2018-07-09T23:40:12.554Z,101687.55
2018-07-09T23:42:39.827Z,101686.21
2018-07-09T23:45:07.157Z,101681.34
2018-07-09T23:47:34.921Z,101686.21
2018-07-09T23:50:02.268Z,101679.55
2018-07-09T23:52:29.569Z,101686.20
2018-07-09T23:54:56.957Z,101691.95
2018-07-09T23:57:56.127Z,101689.30
